EBOS METAR and TAF | Updated Today

EBOS METAR

Ostend-Bruges International Airport

Observation time: 6 min. ago

EBOS 010820Z 28016KT 9999 SCT019 15/11 Q1005 NOSIG

Need help? Read our tutorial on how to read METARs or read the parsed version below.

Ostend-Bruges International Airport (EBOS) METAR

  • Weather conditions on Sat, 01 Oct 2022 08:20:00 +0000 (6 min. ago):
  • Present conditions: Dry
  • Clouds: Scattered at 579 meters
  • Visibility: Greater than 10 km
  • Wind: 280 degrees at 16 knots
  • Temperature: 15 celsius
  • Dew point: 11 celsius
  • Pressure: 1005 millibars
  • Remarks: None


Useful to know...

EBOS TAF

Ostend-Bruges International Airport

TAF EBOS 010500Z 0106/0212 27016G27KT 9999 SCT020 BECMG 0115/0118 24013KT BECMG 0204/0206 30010KT
Observation time: 3:26 hr. ago
Need help? Read our tutorial on how to read TAFs or read the parsed version below.

Parsed version of TAF for Ostend-Bruges International Airport (EBOS)

  • From 01 October at 06:00 UTC, to day 02 of the month at 12:00 UTC
  • Clouds: Scattered at 610 meters
  • Visibility: Greater than 10 km
  • Wind: 270 degrees at 16
  • Expected to arise soon, from 01 October at 15:00 UTC, to day 01 of the month at 18:00 UTC
  • Wind: 240 degrees at 13
  • Expected to arise soon, from 02 October at 04:00 UTC, to day 02 of the month at 06:00 UTC
  • Wind: 300 degrees at 10